sensor_id;sensor_type;location;lat;lon;timestamp;P1;durP1;ratioP1;P2;durP2;ratioP2
29908;SDS011;36247;51.952;6.146;2023-09-19T00:01:42;13.02;;;3.55;;
29908;SDS011;36247;51.952;6.146;2023-09-19T00:04:16;16.40;;;4.97;;
29908;SDS011;36247;51.952;6.146;2023-09-19T00:06:44;14.93;;;4.05;;
29908;SDS011;36247;51.952;6.146;2023-09-19T00:09:10;15.35;;;4.18;;
29908;SDS011;36247;51.952;6.146;2023-09-19T00:11:36;12.30;;;3.80;;
29908;SDS011;36247;51.952;6.146;2023-09-19T00:14:06;13.23;;;3.72;;
29908;SDS011;36247;51.952;6.146;2023-09-19T00:16:34;19.63;;;4.60;;
29908;SDS011;36247;51.952;6.146;2023-09-19T00:19:00;19.13;;;3.88;;
29908;SDS011;36247;51.952;6.146;2023-09-19T00:21:26;19.23;;;4.82;;
29908;SDS011;36247;51.952;6.146;2023-09-19T00:23:52;16.13;;;4.30;;
29908;SDS011;36247;51.952;6.146;2023-09-19T00:26:18;12.32;;;4.00;;
29908;SDS011;36247;51.952;6.146;2023-09-19T00:28:47;19.33;;;4.13;;
29908;SDS011;36247;51.952;6.146;2023-09-19T00:31:13;16.90;;;4.97;;
29908;SDS011;36247;51.952;6.146;2023-09-19T00:33:40;14.40;;;4.05;;
29908;SDS011;36247;51.952;6.146;2023-09-19T00:36:05;17.83;;;3.72;;
29908;SDS011;36247;51.952;6.146;2023-09-19T00:38:36;12.43;;;3.67;;
29908;SDS011;36247;51.952;6.146;2023-09-19T00:41:02;11.77;;;3.38;;
29908;SDS011;36247;51.952;6.146;2023-09-19T00:43:28;17.25;;;4.05;;
29908;SDS011;36247;51.952;6.146;2023-09-19T00:45:58;12.60;;;3.22;;
29908;SDS011;36247;51.952;6.146;2023-09-19T00:48:26;20.85;;;3.75;;
29908;SDS011;36247;51.952;6.146;2023-09-19T00:50:54;14.63;;;4.00;;
29908;SDS011;36247;51.952;6.146;2023-09-19T00:53:28;12.07;;;3.92;;
29908;SDS011;36247;51.952;6.146;2023-09-19T00:55:57;16.00;;;3.78;;
29908;SDS011;36247;51.952;6.146;2023-09-19T00:58:22;15.70;;;3.47;;
29908;SDS011;36247;51.952;6.146;2023-09-19T01:00:48;9.23;;;3.55;;
29908;SDS011;36247;51.952;6.146;2023-09-19T01:03:15;11.50;;;4.10;;
29908;SDS011;36247;51.952;6.146;2023-09-19T01:05:40;7.03;;;3.47;;
29908;SDS011;36247;51.952;6.146;2023-09-19T01:08:07;11.02;;;4.25;;
29908;SDS011;36247;51.952;6.146;2023-09-19T01:10:33;13.30;;;4.13;;
29908;SDS011;36247;51.952;6.146;2023-09-19T01:18:46;18.92;;;4.28;;
29908;SDS011;36247;51.952;6.146;2023-09-19T01:21:40;12.20;;;3.83;;
29908;SDS011;36247;51.952;6.146;2023-09-19T01:29:39;17.38;;;4.93;;
29908;SDS011;36247;51.952;6.146;2023-09-19T01:32:19;24.02;;;4.78;;
29908;SDS011;36247;51.952;6.146;2023-09-19T01:37:19;15.70;;;4.15;;
29908;SDS011;36247;51.952;6.146;2023-09-19T01:39:58;18.75;;;3.85;;
29908;SDS011;36247;51.952;6.146;2023-09-19T01:42:44;16.38;;;4.15;;
29908;SDS011;36247;51.952;6.146;2023-09-19T01:48:19;13.32;;;3.40;;
29908;SDS011;36247;51.952;6.146;2023-09-19T01:50:59;19.45;;;4.03;;
29908;SDS011;36247;51.952;6.146;2023-09-19T01:53:35;17.80;;;3.55;;
29908;SDS011;36247;51.952;6.146;2023-09-19T01:56:08;17.67;;;4.40;;
29908;SDS011;36247;51.952;6.146;2023-09-19T01:58:57;17.10;;;4.30;;
29908;SDS011;36247;51.952;6.146;2023-09-19T02:01:29;26.20;;;4.97;;
29908;SDS011;36247;51.952;6.146;2023-09-19T02:03:56;21.05;;;4.57;;
29908;SDS011;36247;51.952;6.146;2023-09-19T02:06:23;20.33;;;4.85;;
29908;SDS011;36247;51.952;6.146;2023-09-19T02:08:51;14.77;;;4.35;;
29908;SDS011;36247;51.952;6.146;2023-09-19T02:11:19;15.18;;;3.53;;
29908;SDS011;36247;51.952;6.146;2023-09-19T02:13:45;12.52;;;4.22;;
29908;SDS011;36247;51.952;6.146;2023-09-19T02:16:20;14.73;;;3.95;;
29908;SDS011;36247;51.952;6.146;2023-09-19T02:18:49;15.73;;;3.60;;
29908;SDS011;36247;51.952;6.146;2023-09-19T02:21:18;21.50;;;4.97;;
29908;SDS011;36247;51.952;6.146;2023-09-19T02:23:44;18.30;;;3.40;;
29908;SDS011;36247;51.952;6.146;2023-09-19T02:26:13;12.57;;;4.00;;
29908;SDS011;36247;51.952;6.146;2023-09-19T02:28:42;13.32;;;3.95;;
29908;SDS011;36247;51.952;6.146;2023-09-19T02:31:08;17.10;;;3.72;;
29908;SDS011;36247;51.952;6.146;2023-09-19T02:33:34;16.55;;;3.60;;
29908;SDS011;36247;51.952;6.146;2023-09-19T02:36:00;14.32;;;4.47;;
29908;SDS011;36247;51.952;6.146;2023-09-19T02:38:26;17.73;;;4.22;;
29908;SDS011;36247;51.952;6.146;2023-09-19T02:40:52;13.65;;;4.07;;
29908;SDS011;36247;51.952;6.146;2023-09-19T02:43:18;9.90;;;3.22;;
29908;SDS011;36247;51.952;6.146;2023-09-19T02:45:47;18.08;;;4.30;;
29908;SDS011;36247;51.952;6.146;2023-09-19T02:48:15;13.57;;;3.17;;
29908;SDS011;36247;51.952;6.146;2023-09-19T02:50:42;14.23;;;4.43;;
29908;SDS011;36247;51.952;6.146;2023-09-19T02:53:09;10.75;;;3.05;;
29908;SDS011;36247;51.952;6.146;2023-09-19T02:55:38;11.30;;;4.00;;
29908;SDS011;36247;51.952;6.146;2023-09-19T02:58:05;15.75;;;3.35;;
29908;SDS011;36247;51.952;6.146;2023-09-19T03:00:41;15.90;;;4.78;;
29908;SDS011;36247;51.952;6.146;2023-09-19T03:03:08;10.48;;;3.72;;
29908;SDS011;36247;51.952;6.146;2023-09-19T03:05:34;22.52;;;3.75;;
29908;SDS011;36247;51.952;6.146;2023-09-19T03:08:00;11.95;;;3.97;;
29908;SDS011;36247;51.952;6.146;2023-09-19T03:10:26;25.50;;;3.70;;
29908;SDS011;36247;51.952;6.146;2023-09-19T03:12:54;20.63;;;4.35;;
29908;SDS011;36247;51.952;6.146;2023-09-19T03:15:22;16.40;;;3.33;;
29908;SDS011;36247;51.952;6.146;2023-09-19T03:17:49;16.05;;;3.80;;
29908;SDS011;36247;51.952;6.146;2023-09-19T03:20:20;16.00;;;3.95;;
29908;SDS011;36247;51.952;6.146;2023-09-19T03:22:47;16.50;;;4.28;;
29908;SDS011;36247;51.952;6.146;2023-09-19T03:25:15;16.27;;;3.83;;
29908;SDS011;36247;51.952;6.146;2023-09-19T03:27:45;17.25;;;4.30;;
29908;SDS011;36247;51.952;6.146;2023-09-19T03:30:12;18.40;;;3.45;;
29908;SDS011;36247;51.952;6.146;2023-09-19T03:32:43;19.73;;;4.35;;
29908;SDS011;36247;51.952;6.146;2023-09-19T03:35:13;18.20;;;5.35;;
29908;SDS011;36247;51.952;6.146;2023-09-19T03:37:41;16.05;;;3.78;;
29908;SDS011;36247;51.952;6.146;2023-09-19T03:40:08;13.48;;;3.80;;
29908;SDS011;36247;51.952;6.146;2023-09-19T03:42:39;16.83;;;3.95;;
29908;SDS011;36247;51.952;6.146;2023-09-19T03:45:09;17.77;;;3.70;;
29908;SDS011;36247;51.952;6.146;2023-09-19T03:47:38;6.50;;;2.65;;
29908;SDS011;36247;51.952;6.146;2023-09-19T03:50:07;12.35;;;4.95;;
29908;SDS011;36247;51.952;6.146;2023-09-19T03:52:37;14.23;;;4.03;;
29908;SDS011;36247;51.952;6.146;2023-09-19T03:55:03;17.00;;;3.83;;
29908;SDS011;36247;51.952;6.146;2023-09-19T03:57:33;27.65;;;5.07;;
29908;SDS011;36247;51.952;6.146;2023-09-19T04:00:02;18.00;;;3.75;;
29908;SDS011;36247;51.952;6.146;2023-09-19T04:02:38;12.98;;;3.75;;
29908;SDS011;36247;51.952;6.146;2023-09-19T04:05:06;14.15;;;4.25;;
29908;SDS011;36247;51.952;6.146;2023-09-19T04:07:34;14.65;;;3.55;;
29908;SDS011;36247;51.952;6.146;2023-09-19T04:10:00;13.70;;;4.43;;
29908;SDS011;36247;51.952;6.146;2023-09-19T04:12:26;14.40;;;4.07;;
29908;SDS011;36247;51.952;6.146;2023-09-19T04:14:52;10.73;;;3.47;;
29908;SDS011;36247;51.952;6.146;2023-09-19T04:17:18;15.07;;;3.50;;
29908;SDS011;36247;51.952;6.146;2023-09-19T04:19:43;15.75;;;3.95;;
29908;SDS011;36247;51.952;6.146;2023-09-19T04:22:10;14.63;;;3.80;;
29908;SDS011;36247;51.952;6.146;2023-09-19T04:24:37;19.63;;;3.65;;
29908;SDS011;36247;51.952;6.146;2023-09-19T04:27:03;19.85;;;3.58;;
29908;SDS011;36247;51.952;6.146;2023-09-19T04:29:29;18.05;;;4.40;;
29908;SDS011;36247;51.952;6.146;2023-09-19T04:31:58;21.13;;;3.97;;
29908;SDS011;36247;51.952;6.146;2023-09-19T04:34:24;12.65;;;3.80;;
29908;SDS011;36247;51.952;6.146;2023-09-19T04:36:51;21.50;;;4.13;;
29908;SDS011;36247;51.952;6.146;2023-09-19T04:39:18;12.07;;;3.33;;
29908;SDS011;36247;51.952;6.146;2023-09-19T04:41:43;13.52;;;3.40;;
29908;SDS011;36247;51.952;6.146;2023-09-19T04:44:11;18.13;;;3.25;;
29908;SDS011;36247;51.952;6.146;2023-09-19T04:46:37;12.68;;;3.30;;
29908;SDS011;36247;51.952;6.146;2023-09-19T04:49:05;14.77;;;4.18;;
29908;SDS011;36247;51.952;6.146;2023-09-19T04:51:31;12.98;;;3.15;;
29908;SDS011;36247;51.952;6.146;2023-09-19T04:54:07;17.10;;;3.88;;
29908;SDS011;36247;51.952;6.146;2023-09-19T04:56:32;12.52;;;3.65;;
29908;SDS011;36247;51.952;6.146;2023-09-19T04:58:59;14.18;;;3.50;;
29908;SDS011;36247;51.952;6.146;2023-09-19T05:01:25;13.82;;;3.25;;
29908;SDS011;36247;51.952;6.146;2023-09-19T05:03:52;16.02;;;3.30;;
29908;SDS011;36247;51.952;6.146;2023-09-19T05:06:18;10.88;;;2.45;;
29908;SDS011;36247;51.952;6.146;2023-09-19T05:08:46;12.65;;;3.17;;
29908;SDS011;36247;51.952;6.146;2023-09-19T05:11:17;15.68;;;4.25;;
29908;SDS011;36247;51.952;6.146;2023-09-19T05:13:43;14.50;;;3.58;;
29908;SDS011;36247;51.952;6.146;2023-09-19T05:16:09;15.30;;;3.78;;
29908;SDS011;36247;51.952;6.146;2023-09-19T05:18:35;12.55;;;3.22;;
29908;SDS011;36247;51.952;6.146;2023-09-19T05:21:02;14.65;;;3.40;;
29908;SDS011;36247;51.952;6.146;2023-09-19T05:23:29;15.57;;;3.15;;
29908;SDS011;36247;51.952;6.146;2023-09-19T05:25:56;8.52;;;3.85;;
29908;SDS011;36247;51.952;6.146;2023-09-19T05:28:25;13.45;;;3.75;;
29908;SDS011;36247;51.952;6.146;2023-09-19T05:34:53;11.32;;;3.30;;
29908;SDS011;36247;51.952;6.146;2023-09-19T05:45:41;13.98;;;3.88;;
29908;SDS011;36247;51.952;6.146;2023-09-19T05:48:09;15.57;;;5.60;;
29908;SDS011;36247;51.952;6.146;2023-09-19T05:50:37;11.90;;;3.55;;
29908;SDS011;36247;51.952;6.146;2023-09-19T05:53:03;15.70;;;3.67;;
29908;SDS011;36247;51.952;6.146;2023-09-19T05:55:30;13.05;;;3.80;;
29908;SDS011;36247;51.952;6.146;2023-09-19T05:57:57;15.55;;;3.42;;
29908;SDS011;36247;51.952;6.146;2023-09-19T06:00:23;15.00;;;4.05;;
29908;SDS011;36247;51.952;6.146;2023-09-19T06:03:01;17.52;;;3.75;;
29908;SDS011;36247;51.952;6.146;2023-09-19T06:05:27;15.55;;;3.28;;
29908;SDS011;36247;51.952;6.146;2023-09-19T06:07:56;14.48;;;3.60;;
29908;SDS011;36247;51.952;6.146;2023-09-19T06:10:26;13.05;;;4.00;;
29908;SDS011;36247;51.952;6.146;2023-09-19T06:12:53;17.42;;;4.43;;
29908;SDS011;36247;51.952;6.146;2023-09-19T06:15:26;10.00;;;3.83;;
29908;SDS011;36247;51.952;6.146;2023-09-19T06:17:54;15.60;;;3.42;;
29908;SDS011;36247;51.952;6.146;2023-09-19T06:20:32;22.35;;;4.03;;
29908;SDS011;36247;51.952;6.146;2023-09-19T06:23:13;14.90;;;3.53;;
29908;SDS011;36247;51.952;6.146;2023-09-19T06:25:41;9.77;;;3.72;;
29908;SDS011;36247;51.952;6.146;2023-09-19T06:32:41;9.98;;;3.47;;
29908;SDS011;36247;51.952;6.146;2023-09-19T06:35:22;14.82;;;3.35;;
29908;SDS011;36247;51.952;6.146;2023-09-19T06:37:52;12.00;;;3.85;;
29908;SDS011;36247;51.952;6.146;2023-09-19T06:40:37;14.63;;;3.83;;
29908;SDS011;36247;51.952;6.146;2023-09-19T06:43:03;13.70;;;3.25;;
29908;SDS011;36247;51.952;6.146;2023-09-19T06:45:33;20.60;;;3.55;;
29908;SDS011;36247;51.952;6.146;2023-09-19T06:47:59;12.75;;;3.80;;
29908;SDS011;36247;51.952;6.146;2023-09-19T06:50:28;15.93;;;4.65;;
29908;SDS011;36247;51.952;6.146;2023-09-19T06:53:03;18.65;;;4.97;;
29908;SDS011;36247;51.952;6.146;2023-09-19T06:55:30;16.48;;;3.60;;
29908;SDS011;36247;51.952;6.146;2023-09-19T06:57:57;14.60;;;4.45;;
29908;SDS011;36247;51.952;6.146;2023-09-19T07:00:24;18.10;;;4.15;;
29908;SDS011;36247;51.952;6.146;2023-09-19T07:02:57;14.80;;;3.50;;
29908;SDS011;36247;51.952;6.146;2023-09-19T07:05:35;19.65;;;4.28;;
29908;SDS011;36247;51.952;6.146;2023-09-19T07:08:08;11.77;;;3.17;;
29908;SDS011;36247;51.952;6.146;2023-09-19T07:10:37;13.73;;;3.72;;
29908;SDS011;36247;51.952;6.146;2023-09-19T07:13:07;13.32;;;3.95;;
29908;SDS011;36247;51.952;6.146;2023-09-19T07:15:40;19.63;;;4.75;;
29908;SDS011;36247;51.952;6.146;2023-09-19T07:18:13;20.27;;;4.05;;
29908;SDS011;36247;51.952;6.146;2023-09-19T07:20:45;15.02;;;4.13;;
29908;SDS011;36247;51.952;6.146;2023-09-19T07:23:18;16.05;;;4.18;;
29908;SDS011;36247;51.952;6.146;2023-09-19T07:25:47;17.50;;;3.80;;
29908;SDS011;36247;51.952;6.146;2023-09-19T07:28:19;14.15;;;3.33;;
29908;SDS011;36247;51.952;6.146;2023-09-19T07:30:46;12.75;;;4.35;;
29908;SDS011;36247;51.952;6.146;2023-09-19T07:33:12;11.00;;;3.83;;
29908;SDS011;36247;51.952;6.146;2023-09-19T07:35:45;19.27;;;3.72;;
29908;SDS011;36247;51.952;6.146;2023-09-19T07:38:26;22.00;;;4.70;;
29908;SDS011;36247;51.952;6.146;2023-09-19T07:40:59;19.55;;;4.13;;
29908;SDS011;36247;51.952;6.146;2023-09-19T07:43:32;15.45;;;4.25;;
29908;SDS011;36247;51.952;6.146;2023-09-19T07:46:02;19.17;;;3.55;;
29908;SDS011;36247;51.952;6.146;2023-09-19T07:48:38;17.17;;;3.42;;
29908;SDS011;36247;51.952;6.146;2023-09-19T07:51:09;19.67;;;4.53;;
29908;SDS011;36247;51.952;6.146;2023-09-19T07:53:36;14.88;;;4.18;;
29908;SDS011;36247;51.952;6.146;2023-09-19T07:56:05;11.57;;;3.88;;
29908;SDS011;36247;51.952;6.146;2023-09-19T07:58:33;20.23;;;4.05;;
29908;SDS011;36247;51.952;6.146;2023-09-19T08:01:08;16.17;;;3.95;;
29908;SDS011;36247;51.952;6.146;2023-09-19T08:03:38;17.77;;;4.50;;
29908;SDS011;36247;51.952;6.146;2023-09-19T08:06:08;26.08;;;4.45;;
29908;SDS011;36247;51.952;6.146;2023-09-19T08:08:35;12.93;;;3.00;;
29908;SDS011;36247;51.952;6.146;2023-09-19T08:11:05;16.63;;;3.88;;
29908;SDS011;36247;51.952;6.146;2023-09-19T08:13:45;10.80;;;3.45;;
29908;SDS011;36247;51.952;6.146;2023-09-19T08:16:15;17.77;;;4.50;;
29908;SDS011;36247;51.952;6.146;2023-09-19T08:18:41;17.25;;;4.25;;
29908;SDS011;36247;51.952;6.146;2023-09-19T08:21:11;16.40;;;5.15;;
29908;SDS011;36247;51.952;6.146;2023-09-19T08:23:40;26.38;;;4.32;;
29908;SDS011;36247;51.952;6.146;2023-09-19T08:26:07;16.90;;;3.53;;
29908;SDS011;36247;51.952;6.146;2023-09-19T08:28:33;19.30;;;4.28;;
29908;SDS011;36247;51.952;6.146;2023-09-19T08:31:03;16.15;;;3.90;;
29908;SDS011;36247;51.952;6.146;2023-09-19T08:33:32;13.00;;;3.80;;
29908;SDS011;36247;51.952;6.146;2023-09-19T08:36:08;11.85;;;3.63;;
29908;SDS011;36247;51.952;6.146;2023-09-19T08:38:43;17.20;;;4.18;;
29908;SDS011;36247;51.952;6.146;2023-09-19T08:41:09;19.92;;;3.75;;
29908;SDS011;36247;51.952;6.146;2023-09-19T08:43:35;18.38;;;4.20;;
29908;SDS011;36247;51.952;6.146;2023-09-19T08:48:31;15.07;;;3.88;;
29908;SDS011;36247;51.952;6.146;2023-09-19T08:51:07;14.18;;;3.70;;
29908;SDS011;36247;51.952;6.146;2023-09-19T08:53:43;19.90;;;4.50;;
29908;SDS011;36247;51.952;6.146;2023-09-19T08:56:38;17.63;;;4.30;;
29908;SDS011;36247;51.952;6.146;2023-09-19T08:59:07;20.95;;;3.67;;
29908;SDS011;36247;51.952;6.146;2023-09-19T09:01:44;17.48;;;4.50;;
29908;SDS011;36247;51.952;6.146;2023-09-19T09:04:13;16.50;;;4.43;;
29908;SDS011;36247;51.952;6.146;2023-09-19T09:06:41;12.32;;;3.88;;
29908;SDS011;36247;51.952;6.146;2023-09-19T09:09:10;19.83;;;4.88;;
29908;SDS011;36247;51.952;6.146;2023-09-19T09:11:42;19.75;;;4.88;;
29908;SDS011;36247;51.952;6.146;2023-09-19T09:14:15;16.98;;;4.72;;
29908;SDS011;36247;51.952;6.146;2023-09-19T09:16:41;22.20;;;4.38;;
29908;SDS011;36247;51.952;6.146;2023-09-19T09:19:10;20.27;;;4.28;;
29908;SDS011;36247;51.952;6.146;2023-09-19T09:21:43;24.02;;;4.07;;
29908;SDS011;36247;51.952;6.146;2023-09-19T09:24:31;15.52;;;3.90;;
29908;SDS011;36247;51.952;6.146;2023-09-19T09:27:07;19.95;;;4.85;;
29908;SDS011;36247;51.952;6.146;2023-09-19T09:29:47;19.75;;;4.00;;
29908;SDS011;36247;51.952;6.146;2023-09-19T09:32:29;14.95;;;3.40;;
29908;SDS011;36247;51.952;6.146;2023-09-19T09:34:59;15.40;;;4.27;;
29908;SDS011;36247;51.952;6.146;2023-09-19T09:37:27;21.90;;;4.55;;
29908;SDS011;36247;51.952;6.146;2023-09-19T09:40:00;13.18;;;3.50;;
29908;SDS011;36247;51.952;6.146;2023-09-19T09:42:51;18.35;;;3.65;;
29908;SDS011;36247;51.952;6.146;2023-09-19T09:45:25;13.38;;;3.47;;
29908;SDS011;36247;51.952;6.146;2023-09-19T09:48:13;21.73;;;4.25;;
29908;SDS011;36247;51.952;6.146;2023-09-19T09:50:59;17.15;;;3.45;;
29908;SDS011;36247;51.952;6.146;2023-09-19T09:53:29;16.20;;;3.28;;
29908;SDS011;36247;51.952;6.146;2023-09-19T09:56:05;12.95;;;4.05;;
29908;SDS011;36247;51.952;6.146;2023-09-19T10:01:14;12.75;;;3.10;;
29908;SDS011;36247;51.952;6.146;2023-09-19T10:03:41;12.85;;;3.25;;
29908;SDS011;36247;51.952;6.146;2023-09-19T10:06:15;12.43;;;3.10;;
29908;SDS011;36247;51.952;6.146;2023-09-19T10:09:04;10.93;;;2.90;;
29908;SDS011;36247;51.952;6.146;2023-09-19T10:12:02;15.07;;;3.97;;
29908;SDS011;36247;51.952;6.146;2023-09-19T10:14:34;21.88;;;3.58;;
29908;SDS011;36247;51.952;6.146;2023-09-19T10:17:10;12.38;;;3.78;;
29908;SDS011;36247;51.952;6.146;2023-09-19T10:19:56;17.85;;;5.18;;
29908;SDS011;36247;51.952;6.146;2023-09-19T10:22:32;14.00;;;3.22;;
29908;SDS011;36247;51.952;6.146;2023-09-19T10:25:01;13.82;;;3.75;;
29908;SDS011;36247;51.952;6.146;2023-09-19T10:27:36;16.60;;;3.92;;
29908;SDS011;36247;51.952;6.146;2023-09-19T10:30:09;11.10;;;3.47;;
29908;SDS011;36247;51.952;6.146;2023-09-19T10:32:38;11.07;;;2.72;;
29908;SDS011;36247;51.952;6.146;2023-09-19T10:35:12;15.07;;;3.78;;
29908;SDS011;36247;51.952;6.146;2023-09-19T10:37:41;11.45;;;3.17;;
29908;SDS011;36247;51.952;6.146;2023-09-19T10:40:15;11.50;;;3.08;;
29908;SDS011;36247;51.952;6.146;2023-09-19T10:42:43;8.85;;;3.05;;
29908;SDS011;36247;51.952;6.146;2023-09-19T10:45:12;13.23;;;3.15;;
29908;SDS011;36247;51.952;6.146;2023-09-19T10:47:41;12.98;;;4.25;;
29908;SDS011;36247;51.952;6.146;2023-09-19T10:50:08;9.98;;;3.45;;
29908;SDS011;36247;51.952;6.146;2023-09-19T10:52:38;13.63;;;3.75;;
29908;SDS011;36247;51.952;6.146;2023-09-19T10:55:08;9.60;;;2.85;;
29908;SDS011;36247;51.952;6.146;2023-09-19T10:57:44;9.13;;;3.03;;
29908;SDS011;36247;51.952;6.146;2023-09-19T11:00:12;10.23;;;3.38;;
29908;SDS011;36247;51.952;6.146;2023-09-19T11:11:57;10.00;;;3.08;;
29908;SDS011;36247;51.952;6.146;2023-09-19T11:30:39;8.77;;;2.97;;
29908;SDS011;36247;51.952;6.146;2023-09-19T11:36:02;11.00;;;2.70;;
29908;SDS011;36247;51.952;6.146;2023-09-19T11:43:50;11.00;;;3.00;;
29908;SDS011;36247;51.952;6.146;2023-09-19T11:46:53;8.73;;;2.88;;
29908;SDS011;36247;51.952;6.146;2023-09-19T11:49:33;10.55;;;3.03;;
29908;SDS011;36247;51.952;6.146;2023-09-19T11:52:02;12.55;;;3.30;;
29908;SDS011;36247;51.952;6.146;2023-09-19T11:54:35;8.65;;;2.47;;
29908;SDS011;36247;51.952;6.146;2023-09-19T11:57:05;11.73;;;2.67;;
29908;SDS011;36247;51.952;6.146;2023-09-19T11:59:33;8.82;;;2.28;;
29908;SDS011;36247;51.952;6.146;2023-09-19T12:02:05;11.55;;;2.60;;
29908;SDS011;36247;51.952;6.146;2023-09-19T12:04:41;10.20;;;2.95;;
29908;SDS011;36247;51.952;6.146;2023-09-19T12:07:22;7.00;;;3.73;;
29908;SDS011;36247;51.952;6.146;2023-09-19T12:09:50;8.75;;;2.50;;
29908;SDS011;36247;51.952;6.146;2023-09-19T12:12:29;10.23;;;2.70;;
29908;SDS011;36247;51.952;6.146;2023-09-19T12:15:05;7.70;;;2.20;;
29908;SDS011;36247;51.952;6.146;2023-09-19T12:20:05;10.48;;;2.50;;
29908;SDS011;36247;51.952;6.146;2023-09-19T12:22:42;5.68;;;1.83;;
29908;SDS011;36247;51.952;6.146;2023-09-19T12:25:10;8.13;;;2.97;;
29908;SDS011;36247;51.952;6.146;2023-09-19T12:27:44;7.47;;;2.50;;
29908;SDS011;36247;51.952;6.146;2023-09-19T12:30:26;7.22;;;2.65;;
29908;SDS011;36247;51.952;6.146;2023-09-19T12:33:02;8.93;;;2.33;;
29908;SDS011;36247;51.952;6.146;2023-09-19T12:35:34;7.05;;;2.33;;
29908;SDS011;36247;51.952;6.146;2023-09-19T12:38:22;7.88;;;2.40;;
29908;SDS011;36247;51.952;6.146;2023-09-19T12:40:58;7.15;;;1.95;;
29908;SDS011;36247;51.952;6.146;2023-09-19T12:43:33;7.40;;;2.95;;
29908;SDS011;36247;51.952;6.146;2023-09-19T12:46:10;8.45;;;1.92;;
29908;SDS011;36247;51.952;6.146;2023-09-19T12:48:46;10.07;;;2.10;;
29908;SDS011;36247;51.952;6.146;2023-09-19T12:51:17;29.25;;;2.67;;
29908;SDS011;36247;51.952;6.146;2023-09-19T12:53:56;6.55;;;2.15;;
29908;SDS011;36247;51.952;6.146;2023-09-19T12:56:24;6.60;;;2.50;;
29908;SDS011;36247;51.952;6.146;2023-09-19T12:58:55;8.48;;;1.85;;
29908;SDS011;36247;51.952;6.146;2023-09-19T13:01:27;11.40;;;2.25;;
29908;SDS011;36247;51.952;6.146;2023-09-19T13:04:12;9.05;;;2.40;;
29908;SDS011;36247;51.952;6.146;2023-09-19T13:06:46;4.85;;;2.03;;
29908;SDS011;36247;51.952;6.146;2023-09-19T13:09:16;7.13;;;2.08;;
29908;SDS011;36247;51.952;6.146;2023-09-19T13:12:00;12.40;;;2.10;;
29908;SDS011;36247;51.952;6.146;2023-09-19T13:14:33;8.05;;;1.90;;
29908;SDS011;36247;51.952;6.146;2023-09-19T13:17:08;7.47;;;2.20;;
29908;SDS011;36247;51.952;6.146;2023-09-19T13:19:49;9.55;;;2.47;;
29908;SDS011;36247;51.952;6.146;2023-09-19T13:25:20;6.05;;;1.88;;
29908;SDS011;36247;51.952;6.146;2023-09-19T13:27:51;5.40;;;1.98;;
29908;SDS011;36247;51.952;6.146;2023-09-19T13:30:23;6.32;;;2.25;;
29908;SDS011;36247;51.952;6.146;2023-09-19T13:33:12;7.38;;;2.00;;
29908;SDS011;36247;51.952;6.146;2023-09-19T13:35:45;4.30;;;1.83;;
29908;SDS011;36247;51.952;6.146;2023-09-19T13:38:14;8.88;;;2.20;;
29908;SDS011;36247;51.952;6.146;2023-09-19T13:40:43;3.95;;;1.98;;
29908;SDS011;36247;51.952;6.146;2023-09-19T13:43:10;7.60;;;1.75;;
29908;SDS011;36247;51.952;6.146;2023-09-19T13:45:38;9.45;;;1.80;;
29908;SDS011;36247;51.952;6.146;2023-09-19T13:48:07;7.88;;;2.08;;
29908;SDS011;36247;51.952;6.146;2023-09-19T13:50:46;3.83;;;1.70;;
29908;SDS011;36247;51.952;6.146;2023-09-19T13:53:12;6.93;;;2.20;;
29908;SDS011;36247;51.952;6.146;2023-09-19T13:55:38;6.15;;;1.77;;
29908;SDS011;36247;51.952;6.146;2023-09-19T13:58:16;4.70;;;1.67;;
29908;SDS011;36247;51.952;6.146;2023-09-19T14:00:52;5.93;;;1.80;;
29908;SDS011;36247;51.952;6.146;2023-09-19T14:03:22;4.88;;;1.77;;
29908;SDS011;36247;51.952;6.146;2023-09-19T14:05:49;4.53;;;2.13;;
29908;SDS011;36247;51.952;6.146;2023-09-19T14:08:21;6.40;;;1.67;;
29908;SDS011;36247;51.952;6.146;2023-09-19T14:10:49;6.97;;;2.33;;
29908;SDS011;36247;51.952;6.146;2023-09-19T14:13:17;8.38;;;2.15;;
29908;SDS011;36247;51.952;6.146;2023-09-19T14:16:03;4.35;;;1.50;;
29908;SDS011;36247;51.952;6.146;2023-09-19T14:18:36;4.85;;;1.60;;
29908;SDS011;36247;51.952;6.146;2023-09-19T14:21:20;4.82;;;1.33;;
29908;SDS011;36247;51.952;6.146;2023-09-19T14:23:47;10.10;;;2.25;;
29908;SDS011;36247;51.952;6.146;2023-09-19T14:26:15;7.97;;;2.13;;
29908;SDS011;36247;51.952;6.146;2023-09-19T14:28:43;5.88;;;2.13;;
29908;SDS011;36247;51.952;6.146;2023-09-19T14:31:10;6.03;;;1.85;;
29908;SDS011;36247;51.952;6.146;2023-09-19T14:33:36;8.95;;;2.00;;
29908;SDS011;36247;51.952;6.146;2023-09-19T14:36:03;6.57;;;1.55;;
29908;SDS011;36247;51.952;6.146;2023-09-19T14:41:03;3.60;;;1.95;;
29908;SDS011;36247;51.952;6.146;2023-09-19T14:43:30;5.38;;;1.85;;
29908;SDS011;36247;51.952;6.146;2023-09-19T14:46:19;4.03;;;1.40;;
29908;SDS011;36247;51.952;6.146;2023-09-19T14:48:44;5.63;;;1.75;;
29908;SDS011;36247;51.952;6.146;2023-09-19T14:51:12;3.95;;;2.00;;
29908;SDS011;36247;51.952;6.146;2023-09-19T14:53:39;4.95;;;1.80;;
29908;SDS011;36247;51.952;6.146;2023-09-19T14:56:07;7.25;;;2.00;;
29908;SDS011;36247;51.952;6.146;2023-09-19T14:58:34;6.25;;;2.25;;
29908;SDS011;36247;51.952;6.146;2023-09-19T15:01:08;7.57;;;1.95;;
29908;SDS011;36247;51.952;6.146;2023-09-19T15:03:35;5.90;;;2.28;;
29908;SDS011;36247;51.952;6.146;2023-09-19T15:06:02;5.93;;;1.70;;
29908;SDS011;36247;51.952;6.146;2023-09-19T15:08:34;7.72;;;2.00;;
29908;SDS011;36247;51.952;6.146;2023-09-19T15:11:09;5.07;;;1.70;;
29908;SDS011;36247;51.952;6.146;2023-09-19T15:13:37;4.32;;;1.80;;
29908;SDS011;36247;51.952;6.146;2023-09-19T15:16:04;5.38;;;1.98;;
29908;SDS011;36247;51.952;6.146;2023-09-19T15:18:35;4.70;;;2.10;;
29908;SDS011;36247;51.952;6.146;2023-09-19T15:21:09;5.68;;;2.08;;
29908;SDS011;36247;51.952;6.146;2023-09-19T15:23:37;8.30;;;2.08;;
29908;SDS011;36247;51.952;6.146;2023-09-19T15:26:10;5.15;;;2.13;;
29908;SDS011;36247;51.952;6.146;2023-09-19T15:28:38;5.80;;;1.83;;
29908;SDS011;36247;51.952;6.146;2023-09-19T15:31:05;5.75;;;1.83;;
29908;SDS011;36247;51.952;6.146;2023-09-19T15:33:35;3.47;;;1.85;;
29908;SDS011;36247;51.952;6.146;2023-09-19T15:36:03;5.43;;;1.73;;
29908;SDS011;36247;51.952;6.146;2023-09-19T15:38:31;7.47;;;1.83;;
29908;SDS011;36247;51.952;6.146;2023-09-19T15:41:19;7.82;;;2.10;;
29908;SDS011;36247;51.952;6.146;2023-09-19T15:43:46;3.28;;;1.83;;
29908;SDS011;36247;51.952;6.146;2023-09-19T15:46:11;9.60;;;2.08;;
29908;SDS011;36247;51.952;6.146;2023-09-19T15:48:39;6.53;;;2.03;;
29908;SDS011;36247;51.952;6.146;2023-09-19T15:51:05;3.47;;;2.20;;
29908;SDS011;36247;51.952;6.146;2023-09-19T15:53:36;4.57;;;1.63;;
29908;SDS011;36247;51.952;6.146;2023-09-19T15:56:09;7.00;;;1.70;;
29908;SDS011;36247;51.952;6.146;2023-09-19T15:58:35;2.95;;;1.60;;
29908;SDS011;36247;51.952;6.146;2023-09-19T16:01:04;6.43;;;2.20;;
29908;SDS011;36247;51.952;6.146;2023-09-19T16:03:34;5.30;;;1.80;;
29908;SDS011;36247;51.952;6.146;2023-09-19T16:06:10;5.70;;;2.33;;
29908;SDS011;36247;51.952;6.146;2023-09-19T16:08:43;7.35;;;2.10;;
29908;SDS011;36247;51.952;6.146;2023-09-19T16:11:12;11.40;;;2.45;;
29908;SDS011;36247;51.952;6.146;2023-09-19T16:13:38;7.43;;;2.17;;
29908;SDS011;36247;51.952;6.146;2023-09-19T16:16:09;9.57;;;2.30;;
29908;SDS011;36247;51.952;6.146;2023-09-19T16:18:44;6.25;;;2.20;;
29908;SDS011;36247;51.952;6.146;2023-09-19T16:21:16;5.78;;;1.83;;